Time;durP1;ratioP1;P1;durP2;ratioP2;P2;SDS_P1;SDS_P2;PMS_P1;PMS_P2;Temp;Humidity;BMP_temperature;BMP_pressure;BME280_temperature;BME280_humidity;BME280_pressure;Samples;Min_cycle;Max_cycle;Signal;HPM_P1;HPM_P2
2023/02/18 00:01:46;;;;;;;16.55;7.90;;;;;;;;;;5063636;28;20507;-73
2023/02/18 00:04:12;;;;;;;58.38;28.95;;;;;;;;;;5055228;28;20053;-73
2023/02/18 00:06:38;;;;;;;72.20;34.30;;;;;;;;;;5061225;28;20040;-73
2023/02/18 00:09:05;;;;;;;59.63;28.00;;;;;;;;;;5061439;28;20074;-73
2023/02/18 00:11:33;;;;;;;26.98;12.98;;;;;;;;;;5058116;28;20028;-73
2023/02/18 00:14:00;;;;;;;20.73;9.48;;;;;;;;;;5065320;28;20359;-73
2023/02/18 00:16:27;;;;;;;16.55;8.52;;;;;;;;;;5065060;28;20039;-73
2023/02/18 00:18:57;;;;;;;19.98;9.23;;;;;;;;;;5058050;28;20051;-73
2023/02/18 00:21:23;;;;;;;21.88;8.70;;;;;;;;;;5056145;28;20035;-73
2023/02/18 00:23:49;;;;;;;19.95;8.30;;;;;;;;;;5067294;28;20028;-73
2023/02/18 00:26:17;;;;;;;17.23;6.53;;;;;;;;;;5053391;28;20013;-73
2023/02/18 00:28:43;;;;;;;13.52;7.15;;;;;;;;;;5059594;28;20032;-73
2023/02/18 00:31:11;;;;;;;15.77;6.03;;;;;;;;;;5063515;28;20025;-73
2023/02/18 00:33:37;;;;;;;16.13;6.60;;;;;;;;;;5043435;28;20055;-73
2023/02/18 00:36:04;;;;;;;17.42;7.20;;;;;;;;;;5062246;28;20518;-73
2023/02/18 00:38:30;;;;;;;25.52;10.45;;;;;;;;;;5062409;28;20425;-73
2023/02/18 00:40:56;;;;;;;21.67;9.48;;;;;;;;;;5057598;28;20029;-73
2023/02/18 00:43:22;;;;;;;14.32;6.05;;;;;;;;;;5057509;28;20082;-73
2023/02/18 00:45:48;;;;;;;11.88;6.00;;;;;;;;;;5062967;28;20024;-73
2023/02/18 00:48:14;;;;;;;16.65;6.68;;;;;;;;;;5061481;28;20079;-74
2023/02/18 00:50:40;;;;;;;18.48;8.57;;;;;;;;;;5061381;28;20060;-73
2023/02/18 00:53:06;;;;;;;20.33;7.85;;;;;;;;;;5059004;28;20381;-73
2023/02/18 00:55:32;;;;;;;15.75;8.02;;;;;;;;;;5057868;28;20024;-73
2023/02/18 00:57:58;;;;;;;19.33;10.25;;;;;;;;;;5064931;28;20029;-73
2023/02/18 01:00:24;;;;;;;24.27;13.23;;;;;;;;;;5061159;28;20836;-73
2023/02/18 01:02:52;;;;;;;28.23;15.48;;;;;;;;;;5069330;28;20045;-73
2023/02/18 01:05:19;;;;;;;28.50;15.00;;;;;;;;;;5062632;28;20028;-73
2023/02/18 01:07:45;;;;;;;16.40;8.23;;;;;;;;;;5069622;28;20044;-73
2023/02/18 01:10:11;;;;;;;18.67;7.70;;;;;;;;;;5061742;28;20044;-74
2023/02/18 01:12:37;;;;;;;22.73;12.43;;;;;;;;;;5067243;28;20046;-73
2023/02/18 01:15:04;;;;;;;28.90;14.20;;;;;;;;;;5065703;28;20072;-73
2023/02/18 01:17:30;;;;;;;27.20;15.18;;;;;;;;;;5069084;28;20481;-73
2023/02/18 01:19:56;;;;;;;32.30;17.52;;;;;;;;;;5064676;28;20103;-73
2023/02/18 01:22:22;;;;;;;27.77;13.02;;;;;;;;;;5066168;28;20037;-73
2023/02/18 01:24:48;;;;;;;17.77;9.05;;;;;;;;;;5059392;28;20044;-73
2023/02/18 01:27:14;;;;;;;21.00;11.52;;;;;;;;;;5068483;28;20131;-73
2023/02/18 01:29:40;;;;;;;23.75;12.55;;;;;;;;;;5060079;28;20529;-73
2023/02/18 01:32:06;;;;;;;18.73;9.90;;;;;;;;;;5059057;28;20025;-73
2023/02/18 01:34:33;;;;;;;14.13;6.50;;;;;;;;;;5058573;28;20035;-73
2023/02/18 01:36:59;;;;;;;9.65;5.03;;;;;;;;;;5057023;28;20075;-73
2023/02/18 01:39:25;;;;;;;11.00;4.90;;;;;;;;;;5068749;28;20453;-73
2023/02/18 01:41:51;;;;;;;9.75;4.80;;;;;;;;;;5056548;28;20040;-73
2023/02/18 01:44:16;;;;;;;13.00;5.38;;;;;;;;;;5066274;28;20081;-73
2023/02/18 01:46:42;;;;;;;12.80;5.95;;;;;;;;;;5065660;28;20037;-73
2023/02/18 01:49:10;;;;;;;14.52;5.03;;;;;;;;;;5068835;28;20060;-74
2023/02/18 01:51:41;;;;;;;11.68;6.22;;;;;;;;;;5062050;28;20078;-73
2023/02/18 01:54:10;;;;;;;16.45;7.45;;;;;;;;;;5068127;28;20033;-73
2023/02/18 01:56:36;;;;;;;16.15;8.30;;;;;;;;;;5061847;28;20033;-73
2023/02/18 01:59:03;;;;;;;15.63;7.35;;;;;;;;;;5060603;28;20044;-73
2023/02/18 02:01:30;;;;;;;13.95;7.18;;;;;;;;;;5058955;28;20025;-73
2023/02/18 02:03:56;;;;;;;21.13;10.57;;;;;;;;;;5063990;28;20052;-73
2023/02/18 02:06:23;;;;;;;28.13;14.88;;;;;;;;;;5053653;28;20029;-73
2023/02/18 02:08:50;;;;;;;27.85;14.80;;;;;;;;;;5060794;28;20029;-73
2023/02/18 02:11:21;;;;;;;31.90;16.40;;;;;;;;;;5062537;28;20024;-73
2023/02/18 02:13:47;;;;;;;27.67;14.23;;;;;;;;;;5058423;28;20074;-73
2023/02/18 02:16:39;;;;;;;24.85;12.30;;;;;;;;;;5061486;28;20028;-73
2023/02/18 02:19:14;;;;;;;31.95;14.60;;;;;;;;;;5027208;28;20123;-73
2023/02/18 02:22:00;;;;;;;31.27;16.40;;;;;;;;;;5058392;28;20029;-73
2023/02/18 02:24:44;;;;;;;40.75;21.88;;;;;;;;;;5063630;28;20060;-73
2023/02/18 02:27:14;;;;;;;44.67;24.40;;;;;;;;;;5058368;28;20447;-74
2023/02/18 02:29:53;;;;;;;34.92;20.25;;;;;;;;;;5064508;28;20571;-73
2023/02/18 02:32:22;;;;;;;33.13;16.50;;;;;;;;;;5057490;28;20033;-73
2023/02/18 02:34:51;;;;;;;28.25;16.05;;;;;;;;;;5060080;28;20472;-73
2023/02/18 02:37:17;;;;;;;22.48;11.98;;;;;;;;;;5043351;28;20051;-74
2023/02/18 02:39:55;;;;;;;17.15;9.38;;;;;;;;;;5057937;28;20501;-73
2023/02/18 02:42:26;;;;;;;15.00;7.95;;;;;;;;;;5062177;28;20106;-74
2023/02/18 02:45:05;;;;;;;15.55;7.13;;;;;;;;;;5065691;28;20097;-73
2023/02/18 02:47:31;;;;;;;17.77;8.57;;;;;;;;;;5057639;28;20107;-74
2023/02/18 02:50:09;;;;;;;19.35;8.48;;;;;;;;;;5057743;28;20612;-73
2023/02/18 02:52:45;;;;;;;22.25;12.13;;;;;;;;;;5061474;28;20024;-73
2023/02/18 02:55:12;;;;;;;23.10;12.60;;;;;;;;;;5058488;28;20382;-73
2023/02/18 02:57:41;;;;;;;24.77;11.80;;;;;;;;;;5062297;28;20039;-73
2023/02/18 03:00:09;;;;;;;22.23;10.80;;;;;;;;;;5062687;28;20806;-73
2023/02/18 03:02:44;;;;;;;23.20;11.05;;;;;;;;;;5042041;28;20033;-73
2023/02/18 03:05:16;;;;;;;16.25;8.70;;;;;;;;;;5063234;28;22062;-73
2023/02/18 03:07:45;;;;;;;14.25;7.10;;;;;;;;;;5053029;28;20704;-73
2023/02/18 03:10:30;;;;;;;13.13;5.75;;;;;;;;;;5063933;28;20036;-73
2023/02/18 03:13:05;;;;;;;11.75;3.67;;;;;;;;;;5058056;28;20135;-73
2023/02/18 03:15:46;;;;;;;6.88;2.58;;;;;;;;;;5064163;28;20040;-73
2023/02/18 03:18:18;;;;;;;10.43;3.83;;;;;;;;;;5062227;28;20032;-73
2023/02/18 03:21:16;;;;;;;8.75;3.60;;;;;;;;;;5064393;28;20435;-73
2023/02/18 03:23:53;;;;;;;9.82;4.55;;;;;;;;;;5024247;28;20048;-73
2023/02/18 03:26:19;;;;;;;8.90;3.90;;;;;;;;;;5061830;28;20040;-73
2023/02/18 03:28:46;;;;;;;9.13;4.45;;;;;;;;;;5056668;28;20074;-73
2023/02/18 03:31:15;;;;;;;8.95;4.10;;;;;;;;;;5067591;28;20070;-73
2023/02/18 03:34:05;;;;;;;10.65;4.07;;;;;;;;;;5060526;28;20589;-73
2023/02/18 03:36:32;;;;;;;9.52;4.43;;;;;;;;;;5057967;28;20056;-73
2023/02/18 03:39:06;;;;;;;9.10;4.07;;;;;;;;;;5069368;28;20029;-73
2023/02/18 03:41:33;;;;;;;8.32;3.88;;;;;;;;;;5062140;28;20677;-73
2023/02/18 03:44:00;;;;;;;7.78;3.45;;;;;;;;;;5068255;28;20028;-73
2023/02/18 03:46:27;;;;;;;11.77;3.72;;;;;;;;;;5054800;28;20029;-73
2023/02/18 03:48:53;;;;;;;10.48;3.85;;;;;;;;;;5054480;28;20124;-73
2023/02/18 03:51:19;;;;;;;6.35;3.03;;;;;;;;;;5066176;28;20095;-73
2023/02/18 03:53:45;;;;;;;7.60;3.60;;;;;;;;;;5055248;28;20032;-73
2023/02/18 03:56:12;;;;;;;7.40;3.47;;;;;;;;;;5061160;28;20063;-73
2023/02/18 03:58:38;;;;;;;8.65;3.08;;;;;;;;;;5054999;28;20035;-73
2023/02/18 04:01:04;;;;;;;10.75;5.35;;;;;;;;;;5055389;28;20120;-73
2023/02/18 04:03:30;;;;;;;8.68;3.70;;;;;;;;;;5064535;28;20067;-73
2023/02/18 04:05:56;;;;;;;8.40;3.28;;;;;;;;;;5066737;28;20050;-73
2023/02/18 04:08:22;;;;;;;5.63;2.58;;;;;;;;;;5066020;28;20032;-73
2023/02/18 04:10:48;;;;;;;9.60;3.58;;;;;;;;;;5062612;28;20869;-73
2023/02/18 04:13:16;;;;;;;9.68;3.42;;;;;;;;;;5053879;28;20041;-73
2023/02/18 04:15:42;;;;;;;5.93;2.53;;;;;;;;;;5042681;28;20035;-73
2023/02/18 04:18:08;;;;;;;8.98;3.03;;;;;;;;;;5055930;28;20037;-73
2023/02/18 04:20:34;;;;;;;6.90;3.10;;;;;;;;;;5057715;28;20040;-73
2023/02/18 04:23:00;;;;;;;7.50;3.17;;;;;;;;;;5061355;28;20529;-73
2023/02/18 04:25:26;;;;;;;10.90;3.75;;;;;;;;;;5059349;28;20064;-73
2023/02/18 04:27:52;;;;;;;9.43;4.20;;;;;;;;;;5055977;28;20040;-73
2023/02/18 04:30:18;;;;;;;7.93;3.60;;;;;;;;;;5053427;28;20469;-73
2023/02/18 04:32:44;;;;;;;11.50;4.32;;;;;;;;;;5066720;28;20037;-73
2023/02/18 04:35:10;;;;;;;11.43;4.53;;;;;;;;;;5070067;28;20021;-73
2023/02/18 04:37:36;;;;;;;11.82;4.60;;;;;;;;;;5060206;28;20423;-73
2023/02/18 04:40:02;;;;;;;14.07;5.22;;;;;;;;;;5060410;28;20056;-73
2023/02/18 04:42:28;;;;;;;10.68;5.47;;;;;;;;;;5058567;28;20040;-73
2023/02/18 04:44:54;;;;;;;12.60;4.35;;;;;;;;;;5065877;28;20029;-73
2023/02/18 04:47:20;;;;;;;7.80;3.28;;;;;;;;;;5060780;28;20040;-73
2023/02/18 04:49:46;;;;;;;8.35;3.50;;;;;;;;;;5066678;28;20536;-73
2023/02/18 04:52:13;;;;;;;9.25;3.55;;;;;;;;;;5063495;28;20086;-73
2023/02/18 04:54:38;;;;;;;6.55;3.20;;;;;;;;;;5068158;28;20064;-73
2023/02/18 04:57:04;;;;;;;13.13;4.00;;;;;;;;;;5058683;28;20485;-73
2023/02/18 04:59:30;;;;;;;11.35;4.30;;;;;;;;;;5070292;28;20024;-73
2023/02/18 05:01:56;;;;;;;8.95;3.72;;;;;;;;;;5058088;28;20036;-73
2023/02/18 05:04:23;;;;;;;11.45;4.10;;;;;;;;;;5060974;28;20041;-73
2023/02/18 05:06:49;;;;;;;14.25;4.32;;;;;;;;;;5064023;28;20032;-73
2023/02/18 05:09:15;;;;;;;9.25;3.10;;;;;;;;;;5064310;28;20087;-73
2023/02/18 05:11:42;;;;;;;10.50;3.33;;;;;;;;;;5056445;28;20040;-73
2023/02/18 05:14:08;;;;;;;9.90;4.53;;;;;;;;;;5061406;28;20024;-73
2023/02/18 05:16:34;;;;;;;8.05;3.33;;;;;;;;;;5062758;28;20029;-73
2023/02/18 05:19:00;;;;;;;10.30;4.00;;;;;;;;;;5069069;28;20135;-73
2023/02/18 05:21:26;;;;;;;9.57;3.45;;;;;;;;;;5058085;28;20139;-73
2023/02/18 05:23:52;;;;;;;11.85;4.38;;;;;;;;;;5060494;28;20926;-73
2023/02/18 05:26:19;;;;;;;8.95;3.50;;;;;;;;;;5056742;28;20033;-73
2023/02/18 05:28:45;;;;;;;7.53;2.90;;;;;;;;;;5064167;28;20035;-73
2023/02/18 05:31:11;;;;;;;9.20;3.15;;;;;;;;;;5061107;28;20036;-73
2023/02/18 05:33:37;;;;;;;8.75;3.53;;;;;;;;;;5060751;28;20032;-73
2023/02/18 05:36:03;;;;;;;7.45;3.20;;;;;;;;;;5061632;28;20060;-73
2023/02/18 05:38:29;;;;;;;13.38;4.05;;;;;;;;;;5053174;28;20033;-73
2023/02/18 05:40:55;;;;;;;7.05;3.80;;;;;;;;;;5059473;28;20047;-73
2023/02/18 05:43:21;;;;;;;9.65;3.53;;;;;;;;;;5062518;28;20024;-73
2023/02/18 05:45:47;;;;;;;12.05;4.15;;;;;;;;;;5062821;28;20040;-74
2023/02/18 05:48:13;;;;;;;8.32;2.85;;;;;;;;;;5065160;28;20074;-73
2023/02/18 05:50:39;;;;;;;8.90;3.03;;;;;;;;;;5065116;28;20032;-73
2023/02/18 05:53:05;;;;;;;9.45;3.40;;;;;;;;;;5056631;28;20108;-73
2023/02/18 05:55:36;;;;;;;9.55;3.35;;;;;;;;;;5065109;28;20099;-73
2023/02/18 05:58:02;;;;;;;14.13;5.65;;;;;;;;;;5065493;28;20034;-73
2023/02/18 06:00:30;;;;;;;13.27;4.60;;;;;;;;;;5052403;28;20418;-74
2023/02/18 06:02:56;;;;;;;10.13;4.50;;;;;;;;;;5053656;28;20095;-73
2023/02/18 06:05:22;;;;;;;10.70;4.07;;;;;;;;;;5059155;28;20094;-75
2023/02/18 06:07:48;;;;;;;12.55;4.43;;;;;;;;;;5062908;28;20040;-74
2023/02/18 06:10:14;;;;;;;11.63;4.10;;;;;;;;;;5048741;28;20155;-75
2023/02/18 06:12:40;;;;;;;12.20;4.60;;;;;;;;;;5065338;28;20864;-74
2023/02/18 06:15:06;;;;;;;10.68;4.43;;;;;;;;;;5061285;28;20040;-74
2023/02/18 06:17:32;;;;;;;9.88;4.53;;;;;;;;;;5044451;28;20556;-74
2023/02/18 06:19:58;;;;;;;11.27;4.03;;;;;;;;;;5039814;28;20067;-74
2023/02/18 06:22:24;;;;;;;13.05;4.50;;;;;;;;;;5060288;28;20076;-74
2023/02/18 06:24:50;;;;;;;12.05;4.75;;;;;;;;;;5057537;28;20032;-74
2023/02/18 06:27:16;;;;;;;14.63;5.97;;;;;;;;;;5060285;28;20413;-74
2023/02/18 06:29:42;;;;;;;11.13;5.35;;;;;;;;;;5059662;28;20447;-74
2023/02/18 06:32:08;;;;;;;9.35;3.92;;;;;;;;;;5060843;28;20481;-74
2023/02/18 06:34:34;;;;;;;15.25;7.45;;;;;;;;;;5061047;28;20142;-74
2023/02/18 06:37:00;;;;;;;10.20;5.22;;;;;;;;;;5062364;28;20428;-74
2023/02/18 06:39:26;;;;;;;11.02;5.18;;;;;;;;;;5063185;28;20029;-74
2023/02/18 06:41:52;;;;;;;11.02;5.10;;;;;;;;;;5060041;28;20033;-74
2023/02/18 06:44:18;;;;;;;11.27;4.95;;;;;;;;;;5061753;28;20489;-73
2023/02/18 06:46:44;;;;;;;12.25;4.75;;;;;;;;;;5061484;28;20041;-74
2023/02/18 06:49:10;;;;;;;11.20;4.78;;;;;;;;;;5060486;28;20146;-74
2023/02/18 06:51:36;;;;;;;10.20;4.82;;;;;;;;;;5057356;28;20071;-74
2023/02/18 06:54:04;;;;;;;8.52;3.08;;;;;;;;;;5056220;28;20540;-73
2023/02/18 06:56:30;;;;;;;10.18;3.72;;;;;;;;;;5061262;28;20029;-73
2023/02/18 06:58:56;;;;;;;11.90;5.03;;;;;;;;;;5060045;28;20039;-74
2023/02/18 07:01:22;;;;;;;15.98;4.55;;;;;;;;;;5052915;28;20139;-74
2023/02/18 07:03:48;;;;;;;9.23;4.28;;;;;;;;;;5056900;28;20040;-74
2023/02/18 07:06:14;;;;;;;11.00;4.32;;;;;;;;;;5057989;28;20056;-74
2023/02/18 07:08:40;;;;;;;11.85;4.75;;;;;;;;;;5058212;28;20111;-74
2023/02/18 07:11:07;;;;;;;10.20;4.63;;;;;;;;;;5052621;28;20028;-73
2023/02/18 07:13:33;;;;;;;10.68;4.68;;;;;;;;;;5060280;28;20054;-73
2023/02/18 07:15:59;;;;;;;10.60;4.18;;;;;;;;;;5050183;28;20048;-73
2023/02/18 07:18:25;;;;;;;11.13;5.43;;;;;;;;;;5054019;28;20549;-74
2023/02/18 07:20:51;;;;;;;14.43;5.15;;;;;;;;;;5058534;28;20051;-74
2023/02/18 07:23:17;;;;;;;9.88;5.47;;;;;;;;;;5056436;28;20037;-73
2023/02/18 07:25:43;;;;;;;13.32;5.78;;;;;;;;;;5056366;28;20025;-73
2023/02/18 07:28:09;;;;;;;11.65;4.93;;;;;;;;;;5058966;28;20339;-73
2023/02/18 07:30:35;;;;;;;10.95;5.55;;;;;;;;;;5053574;28;20036;-74
2023/02/18 07:33:01;;;;;;;15.35;5.63;;;;;;;;;;5062861;28;20024;-73
2023/02/18 07:35:27;;;;;;;13.15;6.00;;;;;;;;;;5058153;28;20059;-74
2023/02/18 07:37:53;;;;;;;12.00;5.45;;;;;;;;;;5059926;28;20028;-74
2023/02/18 07:40:20;;;;;;;16.63;6.15;;;;;;;;;;5060764;28;20112;-73
2023/02/18 07:42:47;;;;;;;11.55;6.05;;;;;;;;;;5059669;28;20028;-73
2023/02/18 07:45:13;;;;;;;12.95;6.07;;;;;;;;;;5065003;28;20077;-74
2023/02/18 07:47:41;;;;;;;15.43;6.85;;;;;;;;;;5063200;28;20052;-73
2023/02/18 07:50:07;;;;;;;10.55;5.70;;;;;;;;;;5059046;28;20516;-74
2023/02/18 07:52:36;;;;;;;10.88;5.18;;;;;;;;;;5058574;28;20111;-73
2023/02/18 07:55:02;;;;;;;12.93;5.68;;;;;;;;;;5056520;28;20029;-74
2023/02/18 07:57:28;;;;;;;10.43;5.30;;;;;;;;;;5059058;28;20029;-74
2023/02/18 07:59:57;;;;;;;13.10;5.50;;;;;;;;;;5065765;28;20041;-73
2023/02/18 08:02:23;;;;;;;11.38;5.20;;;;;;;;;;5059608;28;20119;-73
2023/02/18 08:04:50;;;;;;;13.32;6.18;;;;;;;;;;5065038;28;20060;-73
2023/02/18 08:07:17;;;;;;;12.90;5.68;;;;;;;;;;5023708;28;20040;-74
2023/02/18 08:09:49;;;;;;;17.00;6.80;;;;;;;;;;5025013;28;20139;-75
2023/02/18 08:12:15;;;;;;;;;;;;;;;;;;5021938;28;20021;-73
2023/02/18 08:14:41;;;;;;;19.73;9.70;;;;;;;;;;5031219;28;19923;-75
2023/02/18 08:17:07;;;;;;;22.25;11.27;;;;;;;;;;5024830;28;21080;-75
2023/02/18 08:19:33;;;;;;;21.70;10.75;;;;;;;;;;5029014;28;20025;-74
2023/02/18 08:22:01;;;;;;;20.13;11.52;;;;;;;;;;5026806;28;20086;-75
2023/02/18 08:24:27;;;;;;;13.82;5.75;;;;;;;;;;5033190;28;21276;-73
2023/02/18 08:26:53;;;;;;;9.43;3.92;;;;;;;;;;5032976;28;20132;-74
2023/02/18 08:29:19;;;;;;;10.95;5.57;;;;;;;;;;5032359;28;20088;-74
2023/02/18 08:31:45;;;;;;;14.90;5.38;;;;;;;;;;5037172;28;20031;-74
2023/02/18 08:34:11;;;;;;;8.93;5.25;;;;;;;;;;5031126;28;20397;-74
2023/02/18 08:36:37;;;;;;;12.93;5.07;;;;;;;;;;5027923;28;20044;-74
2023/02/18 08:39:03;;;;;;;10.63;4.75;;;;;;;;;;5033152;28;20028;-74
2023/02/18 08:41:29;;;;;;;9.02;5.00;;;;;;;;;;5035266;28;20032;-73
2023/02/18 08:43:56;;;;;;;7.72;4.50;;;;;;;;;;5029597;28;20122;-74
2023/02/18 08:46:22;;;;;;;8.45;3.65;;;;;;;;;;5012025;28;20107;-74
2023/02/18 08:48:48;;;;;;;8.57;4.13;;;;;;;;;;5028518;28;20040;-75
2023/02/18 08:51:15;;;;;;;9.23;3.45;;;;;;;;;;5026834;28;20036;-75
2023/02/18 08:53:41;;;;;;;9.93;4.03;;;;;;;;;;5022696;28;20020;-75
2023/02/18 08:56:08;;;;;;;12.10;3.35;;;;;;;;;;5010373;28;20921;-74
2023/02/18 08:58:36;;;;;;;10.27;3.28;;;;;;;;;;5029723;28;20043;-74
2023/02/18 09:01:02;;;;;;;13.60;4.53;;;;;;;;;;5061685;28;20125;-73
2023/02/18 09:03:28;;;;;;;13.00;4.47;;;;;;;;;;5064971;28;20071;-73
2023/02/18 09:05:55;;;;;;;10.60;4.65;;;;;;;;;;5061950;28;20387;-73
2023/02/18 09:08:21;;;;;;;14.18;4.82;;;;;;;;;;5058685;28;20044;-73
2023/02/18 09:10:47;;;;;;;12.13;6.05;;;;;;;;;;5053063;28;20036;-73
2023/02/18 09:13:13;;;;;;;12.00;6.20;;;;;;;;;;5056098;28;20033;-73
2023/02/18 09:15:39;;;;;;;12.90;5.28;;;;;;;;;;5061668;28;20053;-72
2023/02/18 09:18:05;;;;;;;9.13;4.43;;;;;;;;;;5040838;28;20032;-73
2023/02/18 09:20:31;;;;;;;9.82;3.67;;;;;;;;;;5057829;28;20036;-73
2023/02/18 09:22:59;;;;;;;11.70;3.65;;;;;;;;;;5067389;28;20040;-73
2023/02/18 09:25:25;;;;;;;9.75;2.92;;;;;;;;;;5057654;28;20040;-73
2023/02/18 09:27:51;;;;;;;11.98;3.03;;;;;;;;;;5060109;28;20033;-73
2023/02/18 09:30:17;;;;;;;9.43;2.70;;;;;;;;;;5060057;28;20044;-73
2023/02/18 09:32:43;;;;;;;8.75;4.10;;;;;;;;;;5058506;28;20363;-73
2023/02/18 09:35:09;;;;;;;13.15;5.95;;;;;;;;;;5063870;28;20053;-73
2023/02/18 09:37:35;;;;;;;15.52;6.57;;;;;;;;;;5061357;28;20037;-73
2023/02/18 09:40:01;;;;;;;13.90;6.32;;;;;;;;;;5064896;28;20044;-73
2023/02/18 09:42:30;;;;;;;15.32;6.88;;;;;;;;;;5058702;28;20040;-74
2023/02/18 09:44:58;;;;;;;12.70;5.55;;;;;;;;;;5063029;28;20076;-73
2023/02/18 09:47:29;;;;;;;10.30;3.92;;;;;;;;;;5056386;28;20102;-73
2023/02/18 09:49:57;;;;;;;9.02;3.75;;;;;;;;;;5057762;28;20145;-73
2023/02/18 09:52:31;;;;;;;10.38;3.20;;;;;;;;;;5055225;28;20075;-72
2023/02/18 09:54:57;;;;;;;5.68;2.80;;;;;;;;;;5059641;28;20025;-73
2023/02/18 09:57:26;;;;;;;8.70;2.80;;;;;;;;;;5062946;28;20108;-73
2023/02/18 09:59:57;;;;;;;9.43;2.03;;;;;;;;;;5064913;28;20067;-74
2023/02/18 10:02:23;;;;;;;9.48;2.05;;;;;;;;;;5065454;28;20072;-74
2023/02/18 10:04:51;;;;;;;6.38;1.60;;;;;;;;;;5062210;28;20040;-73
2023/02/18 10:07:25;;;;;;;4.47;1.60;;;;;;;;;;5058932;28;20469;-73
2023/02/18 10:09:52;;;;;;;6.45;1.80;;;;;;;;;;5060592;28;20448;-73
2023/02/18 10:12:22;;;;;;;6.18;2.17;;;;;;;;;;5064601;28;20039;-73
2023/02/18 10:14:56;;;;;;;4.95;1.75;;;;;;;;;;5051978;28;20025;-73
2023/02/18 10:17:26;;;;;;;4.88;1.20;;;;;;;;;;5059406;28;20865;-73
2023/02/18 10:19:53;;;;;;;5.47;1.38;;;;;;;;;;5063208;28;20382;-73
2023/02/18 10:22:20;;;;;;;6.53;1.88;;;;;;;;;;5054819;28;20107;-73
2023/02/18 10:24:49;;;;;;;7.05;2.17;;;;;;;;;;5058655;28;20033;-73
2023/02/18 10:27:18;;;;;;;8.50;2.80;;;;;;;;;;5060700;28;20059;-74
2023/02/18 10:29:44;;;;;;;9.93;2.92;;;;;;;;;;5057100;28;20075;-74
2023/02/18 10:32:19;;;;;;;9.57;2.65;;;;;;;;;;5061575;28;20527;-74
2023/02/18 10:34:48;;;;;;;9.18;2.95;;;;;;;;;;5056938;28;20028;-73
2023/02/18 10:37:14;;;;;;;9.98;2.38;;;;;;;;;;5062426;28;20496;-74
2023/02/18 10:39:43;;;;;;;13.50;2.50;;;;;;;;;;5066680;28;20029;-74
2023/02/18 10:42:12;;;;;;;6.25;2.40;;;;;;;;;;5061359;28;20090;-73
2023/02/18 10:44:44;;;;;;;10.18;3.45;;;;;;;;;;5053495;28;20113;-73
2023/02/18 10:47:10;;;;;;;;;;;;;;;;;;5060658;28;20401;-74
2023/02/18 10:49:42;;;;;;;7.45;2.45;;;;;;;;;;5066681;28;19950;-74
2023/02/18 10:52:13;;;;;;;8.40;2.95;;;;;;;;;;5061526;28;20474;-73
2023/02/18 10:54:50;;;;;;;8.27;2.90;;;;;;;;;;5056692;28;20470;-74
2023/02/18 10:57:21;;;;;;;9.13;2.47;;;;;;;;;;5053795;28;20289;-74
2023/02/18 11:00:13;;;;;;;5.82;1.98;;;;;;;;;;5062866;28;20024;-73
2023/02/18 11:02:40;;;;;;;6.20;2.25;;;;;;;;;;5055436;28;20053;-74
2023/02/18 11:05:26;;;;;;;9.70;2.05;;;;;;;;;;5057916;28;20041;-74
2023/02/18 11:07:58;;;;;;;11.82;2.25;;;;;;;;;;5064689;28;20078;-73
2023/02/18 11:10:26;;;;;;;8.35;2.55;;;;;;;;;;5064604;28;20120;-74
2023/02/18 11:12:59;;;;;;;8.02;2.50;;;;;;;;;;5064682;28;20036;-73
2023/02/18 11:15:26;;;;;;;6.85;2.63;;;;;;;;;;5060937;28;20036;-74
2023/02/18 11:17:53;;;;;;;6.82;1.88;;;;;;;;;;5058276;28;20032;-73
2023/02/18 11:20:32;;;;;;;4.63;1.88;;;;;;;;;;5062249;28;20056;-74
2023/02/18 11:23:12;;;;;;;6.75;1.65;;;;;;;;;;5056672;28;20603;-73
2023/02/18 11:25:39;;;;;;;5.03;1.90;;;;;;;;;;5063289;28;20021;-73
2023/02/18 11:28:17;;;;;;;7.20;1.92;;;;;;;;;;5056761;28;20032;-73
2023/02/18 11:30:45;;;;;;;6.55;1.95;;;;;;;;;;5065166;28;20043;-74
2023/02/18 11:33:14;;;;;;;10.10;2.25;;;;;;;;;;5062192;28;20112;-73
2023/02/18 11:35:48;;;;;;;7.55;1.85;;;;;;;;;;5066226;28;20028;-73
2023/02/18 11:38:18;;;;;;;4.45;1.67;;;;;;;;;;5061940;28;20028;-73
2023/02/18 11:40:53;;;;;;;9.38;2.00;;;;;;;;;;5064124;28;20040;-73
2023/02/18 11:43:19;;;;;;;4.97;1.92;;;;;;;;;;5062661;28;20036;-73
2023/02/18 11:45:46;;;;;;;6.65;1.90;;;;;;;;;;5061755;28;20040;-74
2023/02/18 11:48:16;;;;;;;6.38;1.90;;;;;;;;;;5055627;28;20060;-74
2023/02/18 11:50:42;;;;;;;10.43;2.15;;;;;;;;;;5061865;28;20732;-74
2023/02/18 11:53:30;;;;;;;11.27;2.22;;;;;;;;;;5060367;28;20069;-74
2023/02/18 11:55:57;;;;;;;5.45;1.48;;;;;;;;;;5062860;28;20082;-74
2023/02/18 11:58:24;;;;;;;5.00;1.52;;;;;;;;;;5059624;28;20032;-74
2023/02/18 12:00:51;;;;;;;7.85;1.52;;;;;;;;;;5062080;28;20036;-74
2023/02/18 12:03:19;;;;;;;5.85;1.83;;;;;;;;;;5061309;28;20432;-74
2023/02/18 12:05:46;;;;;;;5.50;1.33;;;;;;;;;;5062811;28;20033;-74
2023/02/18 12:08:20;;;;;;;4.18;1.40;;;;;;;;;;5060450;28;20035;-74
2023/02/18 12:10:45;;;;;;;3.80;1.23;;;;;;;;;;5056489;28;20063;-74
2023/02/18 12:13:21;;;;;;;4.35;1.20;;;;;;;;;;5065145;28;20033;-74
2023/02/18 12:15:59;;;;;;;4.65;1.45;;;;;;;;;;5060693;28;20029;-73
2023/02/18 12:18:25;;;;;;;5.30;1.13;;;;;;;;;;5059878;28;20041;-74
2023/02/18 12:21:01;;;;;;;9.93;1.73;;;;;;;;;;5053405;28;20044;-74
2023/02/18 12:24:00;;;;;;;6.07;1.58;;;;;;;;;;5070275;23;20060;-74
2023/02/18 12:26:33;;;;;;;5.65;1.67;;;;;;;;;;4977667;28;20787;-73
2023/02/18 12:29:14;;;;;;;5.80;1.42;;;;;;;;;;5038323;28;20575;-74
2023/02/18 12:31:50;;;;;;;5.57;1.30;;;;;;;;;;5039187;28;20037;-74
2023/02/18 12:34:24;;;;;;;5.90;1.85;;;;;;;;;;5044823;28;20059;-74
2023/02/18 12:37:06;;;;;;;3.78;1.70;;;;;;;;;;5043630;28;20034;-74
2023/02/18 12:39:35;;;;;;;7.50;1.20;;;;;;;;;;5037797;28;20037;-74
2023/02/18 12:42:01;;;;;;;3.67;1.55;;;;;;;;;;5042378;28;20033;-74
2023/02/18 12:44:26;;;;;;;3.88;1.63;;;;;;;;;;5040410;28;20459;-74
2023/02/18 12:47:05;;;;;;;5.85;1.60;;;;;;;;;;5042926;28;20037;-74
2023/02/18 12:49:31;;;;;;;5.55;1.30;;;;;;;;;;5033703;28;20069;-74
2023/02/18 12:52:02;;;;;;;4.50;1.70;;;;;;;;;;5046790;28;20455;-74
2023/02/18 12:54:34;;;;;;;5.43;1.35;;;;;;;;;;5042771;28;20025;-74
2023/02/18 12:57:15;;;;;;;5.53;1.50;;;;;;;;;;5044969;28;20486;-74
2023/02/18 12:59:47;;;;;;;5.97;1.45;;;;;;;;;;5046669;28;20039;-74
2023/02/18 13:02:19;;;;;;;3.80;1.25;;;;;;;;;;5035732;28;20057;-73
2023/02/18 13:05:04;;;;;;;3.67;1.55;;;;;;;;;;5043337;28;20108;-74
2023/02/18 13:07:33;;;;;;;3.95;1.40;;;;;;;;;;5040345;28;20063;-74
2023/02/18 13:10:05;;;;;;;4.03;1.35;;;;;;;;;;5040172;28;20113;-74
2023/02/18 13:12:31;;;;;;;;;;;;;;;;;;5042956;28;20029;-74
2023/02/18 13:15:03;;;;;;;6.47;1.42;;;;;;;;;;5033718;28;19920;-74
2023/02/18 13:17:32;;;;;;;5.18;1.38;;;;;;;;;;5035298;28;20762;-74
2023/02/18 13:20:00;;;;;;;4.88;1.30;;;;;;;;;;5043605;28;20040;-74
2023/02/18 13:22:28;;;;;;;3.58;1.58;;;;;;;;;;5044114;28;20050;-73
2023/02/18 13:24:55;;;;;;;5.35;1.45;;;;;;;;;;5042062;28;20032;-73
2023/02/18 13:27:27;;;;;;;5.47;1.38;;;;;;;;;;5046150;28;20474;-73
2023/02/18 13:30:06;;;;;;;5.15;1.90;;;;;;;;;;5045847;28;20115;-74
2023/02/18 13:32:42;;;;;;;4.60;1.80;;;;;;;;;;5035644;28;20112;-73
2023/02/18 13:35:17;;;;;;;4.65;1.80;;;;;;;;;;5042319;28;20096;-74
2023/02/18 13:37:52;;;;;;;7.22;1.63;;;;;;;;;;5040761;28;20036;-74
2023/02/18 13:40:22;;;;;;;3.90;1.20;;;;;;;;;;5043847;28;20048;-73
2023/02/18 13:42:52;;;;;;;6.38;1.58;;;;;;;;;;5044808;28;20044;-74
2023/02/18 13:45:24;;;;;;;6.00;1.52;;;;;;;;;;5035085;28;20037;-74
2023/02/18 13:47:50;;;;;;;3.83;1.35;;;;;;;;;;5040780;28;20063;-74
2023/02/18 13:50:24;;;;;;;6.65;1.90;;;;;;;;;;5037717;28;20061;-75
2023/02/18 13:52:51;;;;;;;3.92;1.15;;;;;;;;;;5048354;28;20028;-74
2023/02/18 13:55:21;;;;;;;5.82;1.30;;;;;;;;;;5037039;28;20060;-73
2023/02/18 13:57:47;;;;;;;4.90;1.50;;;;;;;;;;5041878;28;20029;-74
2023/02/18 14:00:36;;;;;;;5.20;1.40;;;;;;;;;;5041050;28;20036;-74
2023/02/18 14:03:19;;;;;;;4.07;1.25;;;;;;;;;;5032244;28;20052;-74
2023/02/18 14:05:46;;;;;;;4.93;0.98;;;;;;;;;;5042597;28;20043;-74
2023/02/18 14:08:13;;;;;;;4.28;1.08;;;;;;;;;;5048880;28;20032;-74
2023/02/18 14:10:39;;;;;;;5.43;1.13;;;;;;;;;;5039379;28;20040;-74
2023/02/18 14:13:19;;;;;;;3.60;1.00;;;;;;;;;;5045422;28;20033;-74
2023/02/18 14:15:48;;;;;;;4.63;1.15;;;;;;;;;;5035488;28;20075;-74
2023/02/18 14:18:14;;;;;;;5.03;1.13;;;;;;;;;;5039596;28;20458;-74
2023/02/18 14:20:40;;;;;;;3.85;1.05;;;;;;;;;;5035598;28;20041;-74
2023/02/18 14:23:18;;;;;;;2.70;1.10;;;;;;;;;;5046867;28;20533;-74
2023/02/18 14:25:56;;;;;;;5.78;1.13;;;;;;;;;;5035361;28;20033;-74
2023/02/18 14:28:43;;;;;;;4.20;1.00;;;;;;;;;;5036534;28;20071;-73
2023/02/18 14:31:12;;;;;;;6.38;1.50;;;;;;;;;;5034248;28;20113;-74
2023/02/18 14:34:05;;;;;;;2.35;1.02;;;;;;;;;;5046195;28;20056;-74
2023/02/18 14:36:50;;;;;;;3.47;1.15;;;;;;;;;;5016188;28;20064;-74
2023/02/18 14:39:35;;;;;;;5.63;1.20;;;;;;;;;;5041514;28;20515;-74
2023/02/18 14:42:04;;;;;;;6.30;1.77;;;;;;;;;;5034948;28;20374;-73
2023/02/18 14:44:30;;;;;;;6.97;1.40;;;;;;;;;;5034927;28;20025;-74
2023/02/18 14:46:55;;;;;;;3.15;1.30;;;;;;;;;;5040833;28;20386;-74